P/v Golden Gate — WDE5665 — position and weather

sailwx.info

Track history (hours):
 
Tides and Currents Weather Stations Pressure Air Temp Water Temp Dewpoint Dewpoint Depression Visibility Wind Speed Wind Dir Waves Ship Positions

P/v Golden Gate

Owner: San Francisco Bar Pilots Benevolent and Protective, San Francisco, CA. More information available from US FCC via Universal Licensing System and Coast Guard Vessel Documentation Center.

Last reported at 2017-Sep-22 02:00 UTC. Time now 2017-Sep-23 05:50 UTC.
Position N 37°49' W 122°29'.

Length 21 m.

Type: Pilot. MMSI: 367370010.

Date/timePositionNaut miles runAvg speedWind from/ knotsBaromVisibWave heightAir tempDewpointWater temp
2017-Sep-22 02:00N 37°49' W 122°29'815.0
2017-Sep-22 01:30N 37°48' W 122°20'1 1.7
2017-Sep-22 01:01N 37°48' W 122°19'3 7.0
2017-Sep-22 00:30N 37°44' W 122°20'5 9.2
2017-Sep-22 00:01N 37°48' W 122°24'0 0.4
2017-Sep-21 23:30N 37°48' W 122°24'0 0.0
2017-Sep-21 23:00N 37°48' W 122°24'1 1.0
2017-Sep-21 22:31N 37°49' W 122°24'713.1
2017-Sep-21 22:00N 37°48' W 122°32'815.2
2017-Sep-21 21:30N 37°46' W 122°22'1 1.4
2017-Sep-21 21:01N 37°45' W 122°22'3 6.3
2017-Sep-21 20:30N 37°48' W 122°24'0 0.0
2017-Sep-21 20:00N 37°48' W 122°24'0 0.0
2017-Sep-21 19:30N 37°48' W 122°24'0 0.0
2017-Sep-21 19:00N 37°48' W 122°24'2 3.8
2017-Sep-21 18:31N 37°47' W 122°22'2 3.7
2017-Sep-21 18:00N 37°48' W 122°24'0 0.0
2017-Sep-21 17:30N 37°48' W 122°24'0 0.0
2017-Sep-21 17:00N 37°48' W 122°24'0 0.0
2017-Sep-21 16:30N 37°48' W 122°24'1 2.5
2017-Sep-21 16:00N 37°49' W 122°25'0 0.1
2017-Sep-21 15:30N 37°49' W 122°25'510.9
2017-Sep-21 15:01N 37°45' W 122°20'1 2.5
2017-Sep-21 14:30N 37°46' W 122°21'3 6.4
2017-Sep-21 14:00N 37°48' W 122°24'0 0.0
2017-Sep-21 13:30N 37°48' W 122°24'0 0.0
2017-Sep-21 13:00N 37°48' W 122°24'0 0.0
2017-Sep-21 12:31N 37°48' W 122°24'0 0.0
2017-Sep-21 12:00N 37°48' W 122°24'0 0.0
2017-Sep-21 11:30N 37°48' W 122°24'0 0.0
2017-Sep-21 11:00N 37°48' W 122°24'0 0.0
2017-Sep-21 10:31N 37°48' W 122°24'0 0.0
2017-Sep-21 10:00N 37°48' W 122°24'4 7.3
2017-Sep-21 09:30N 37°46' W 122°20'4 7.2
2017-Sep-21 09:01N 37°48' W 122°24'0 0.3
2017-Sep-21 08:31N 37°48' W 122°24'1121.9
2017-Sep-21 08:00N 37°46' W 122°37'1019.1
2017-Sep-21 07:30N 37°49' W 122°26'2 3.9
2017-Sep-21 07:01N 37°48' W 122°24'1 2.4
2017-Sep-21 06:30N 37°47' W 122°23'1 2.0
2017-Sep-21 06:00N 37°48' W 122°23'0 1.0
2017-Sep-21 05:30N 37°49' W 122°23'0 0.9
2017-Sep-21 05:01N 37°48' W 122°24'510.2
2017-Sep-21 04:30N 37°44' W 122°20'510.2
2017-Sep-21 04:01N 37°48' W 122°24'0 0.0
2017-Sep-21 03:30N 37°48' W 122°24'4 8.3
2017-Sep-21 03:00N 37°48' W 122°19'1 2.4
2017-Sep-21 02:31N 37°48' W 122°20'1 1.1
2017-Sep-21 02:00N 37°48' W 122°21'2 4.1
2017-Sep-21 01:30N 37°46' W 122°20'3 5.1
2017-Sep-21 01:01N 37°49' W 122°20'4 7.1
2017-Sep-21 00:31N 37°45' W 122°21'4 7.1
2017-Sep-21 00:01N 37°48' W 122°24'2 4.7
2017-Sep-20 23:30N 37°47' W 122°21'2 4.0
2017-Sep-20 23:00N 37°48' W 122°23'1 1.6
2017-Sep-20 22:30N 37°48' W 122°24'0 0.0
2017-Sep-20 22:00N 37°48' W 122°24'0 0.0
2017-Sep-20 21:30N 37°48' W 122°24'0 0.0
2017-Sep-20 21:00N 37°48' W 122°24'3 6.5
2017-Sep-20 20:31N 37°46' W 122°21'2 4.4
2017-Sep-20 20:01N 37°48' W 122°20'0 0.0
2017-Sep-20 19:30N 37°48' W 122°20'3 6.7
2017-Sep-20 19:00N 37°48' W 122°24'0 0.0
2017-Sep-20 18:30N 37°48' W 122°24'0 0.0
2017-Sep-20 18:00N 37°48' W 122°24'0 0.0
2017-Sep-20 17:30N 37°48' W 122°24'0 0.0
2017-Sep-20 17:00N 37°48' W 122°24'0 0.0
2017-Sep-20 16:30N 37°48' W 122°24'0 0.0
2017-Sep-20 16:00N 37°48' W 122°24'0 0.0
2017-Sep-20 15:30N 37°48' W 122°24'0 0.0
2017-Sep-20 14:59N 37°48' W 122°24'0 0.0
2017-Sep-20 14:00N 37°48' W 122°24'0 0.0
2017-Sep-20 13:30N 37°48' W 122°24'0 0.0
2017-Sep-20 13:00N 37°48' W 122°24'0 0.0
2017-Sep-20 12:30N 37°48' W 122°24'0 0.0
2017-Sep-20 12:00N 37°48' W 122°24'0 0.0
2017-Sep-20 11:30N 37°48' W 122°24'0 0.0
2017-Sep-20 11:00N 37°48' W 122°24'0 0.0
2017-Sep-20 10:30N 37°48' W 122°24'0 0.0
2017-Sep-20 10:00N 37°48' W 122°24'0 0.0
2017-Sep-20 09:30N 37°48' W 122°24'0 0.0
2017-Sep-20 09:00N 37°48' W 122°24'0 0.0
2017-Sep-20 08:30N 37°48' W 122°24'0 0.0
2017-Sep-20 08:00N 37°48' W 122°24'0 0.0
2017-Sep-20 07:30N 37°48' W 122°24'0 0.0
2017-Sep-20 07:00N 37°48' W 122°24'0 0.0
2017-Sep-20 06:30N 37°48' W 122°24'0 0.0
2017-Sep-20 06:00N 37°48' W 122°24'0 0.0
2017-Sep-20 05:30N 37°48' W 122°24'0 0.1
2017-Sep-20 05:00N 37°48' W 122°24'0 0.1
2017-Sep-20 04:31N 37°48' W 122°24'1 1.2
2017-Sep-20 04:01N 37°48' W 122°23'2 4.2
2017-Sep-20 03:30N 37°46' W 122°21'2 3.8
2017-Sep-20 03:01N 37°45' W 122°20'5 9.0
2017-Sep-20 02:30N 37°48' W 122°24'1 2.2
2017-Sep-20 02:00N 37°47' W 122°23'0 0.0
2017-Sep-20 01:30N 37°47' W 122°23'2 3.4
2017-Sep-20 01:01N 37°47' W 122°21'2 4.9
2017-Sep-20 00:30N 37°48' W 122°24'0 0.0
2017-Sep-19 23:59N 37°48' W 122°24'0 0.0
2017-Sep-19 23:30N 37°48' W 122°24'0 0.0
2017-Sep-19 23:00N 37°48' W 122°24'0 0.0
2017-Sep-19 22:30N 37°48' W 122°24'0 0.0
2017-Sep-19 22:00N 37°48' W 122°24'3 6.8
2017-Sep-19 21:31N 37°48' W 122°20'3 6.6
2017-Sep-19 21:01N 37°48' W 122°24'0 0.2
2017-Sep-19 20:30N 37°48' W 122°24'0 0.0
2017-Sep-19 20:00N 37°48' W 122°24'0 0.0
2017-Sep-19 19:31N 37°48' W 122°24'0 0.0
2017-Sep-19 19:00N 37°48' W 122°24'0 0.0
2017-Sep-19 18:30N 37°48' W 122°24'0 0.0
2017-Sep-19 18:00N 37°48' W 122°24'0 0.0
2017-Sep-19 17:30N 37°48' W 122°24'0 0.2
2017-Sep-19 17:01N 37°48' W 122°24'1 2.1
2017-Sep-19 16:25N 37°49' W 122°25'511.3
2017-Sep-19 16:00N 37°48' W 122°19'4 8.3
2017-Sep-19 15:31N 37°49' W 122°24'4 8.8
2017-Sep-19 15:01N 37°48' W 122°19'0 0.3
2017-Sep-19 14:31N 37°48' W 122°19'2 3.0
2017-Sep-19 14:01N 37°48' W 122°21'2 4.9
2017-Sep-19 13:31N 37°48' W 122°24'3 5.6
2017-Sep-19 13:01N 37°49' W 122°27'3 5.6
2017-Sep-19 12:30N 37°48' W 122°24'0 0.0
2017-Sep-19 12:00N 37°48' W 122°24'0 0.0
2017-Sep-19 11:30N 37°48' W 122°24'0 0.0
2017-Sep-19 11:00N 37°48' W 122°24'0 0.0
2017-Sep-19 10:30N 37°48' W 122°24'0 0.0
2017-Sep-19 10:00N 37°48' W 122°24'0 0.0
2017-Sep-19 09:30N 37°48' W 122°24'4 7.2
2017-Sep-19 09:00N 37°49' W 122°28'4 7.2
2017-Sep-19 08:31N 37°48' W 122°24'0 0.0
2017-Sep-19 08:00N 37°48' W 122°24'0 0.0
2017-Sep-19 07:30N 37°48' W 122°24'0 0.0
2017-Sep-19 07:00N 37°48' W 122°24'0 0.0
2017-Sep-19 06:30N 37°48' W 122°24'0 0.0
2017-Sep-19 06:00N 37°48' W 122°24'1 2.2
2017-Sep-19 05:30N 37°49' W 122°24'1 1.3
2017-Sep-19 05:00N 37°49' W 122°25'1 2.7
2017-Sep-19 04:30N 37°48' W 122°24'0 0.0
2017-Sep-19 04:00N 37°48' W 122°24'2 3.1
2017-Sep-19 03:31N 37°47' W 122°22'2 3.1
2017-Sep-19 03:00N 37°48' W 122°24'0 0.0
2017-Sep-19 02:30N 37°48' W 122°24'0 0.0
2017-Sep-19 02:00N 37°48' W 122°24'0 0.0
2017-Sep-19 01:30N 37°48' W 122°24'0 0.0
2017-Sep-19 01:00N 37°48' W 122°24'2 4.9
2017-Sep-19 00:30N 37°48' W 122°21'2 4.9
2017-Sep-19 00:00N 37°48' W 122°24'3 5.5
2017-Sep-18 23:30N 37°48' W 122°20'3 5.5
2017-Sep-18 23:01N 37°48' W 122°24'3 5.3
2017-Sep-18 22:30N 37°46' W 122°21'1 1.6
2017-Sep-18 22:00N 37°47' W 122°21'2 4.9
2017-Sep-18 21:30N 37°48' W 122°24'1 1.4
2017-Sep-18 21:01N 37°49' W 122°24'917.7
2017-Sep-18 20:31N 37°47' W 122°35'3 5.3
2017-Sep-18 20:01N 37°48' W 122°32'1019.0
2017-Sep-18 19:30N 37°48' W 122°20'3 6.4
2017-Sep-18 19:00N 37°48' W 122°24'0 0.0
2017-Sep-18 18:30N 37°48' W 122°24'0 0.0
2017-Sep-18 18:00N 37°48' W 122°24'0 0.0
2017-Sep-18 17:30N 37°48' W 122°24'3 5.5
2017-Sep-18 17:00N 37°46' W 122°22'1 2.6
2017-Sep-18 16:31N 37°47' W 122°21'3 5.2
2017-Sep-18 16:00N 37°48' W 122°24'0 0.0
2017-Sep-18 15:30N 37°48' W 122°24'1 1.4
2017-Sep-18 14:36N 37°49' W 122°25'0 0.0
2017-Sep-18 14:31N 37°49' W 122°25'4 8.9
2017-Sep-18 14:01N 37°46' W 122°20'2 3.5
2017-Sep-18 13:31N 37°48' W 122°21'3 4.9
2017-Sep-18 13:00N 37°48' W 122°24'0 0.0
2017-Sep-18 12:30N 37°48' W 122°24'0 0.0
2017-Sep-18 12:00N 37°48' W 122°24'0 0.4
2017-Sep-18 11:30N 37°48' W 122°24'918.3
2017-Sep-18 11:00N 37°47' W 122°35'1 2.3
2017-Sep-18 10:30N 37°47' W 122°34'816.2
2017-Sep-18 10:00N 37°48' W 122°24'0 0.0
2017-Sep-18 09:30N 37°48' W 122°24'0 0.0
2017-Sep-18 09:00N 37°48' W 122°24'2 4.9
2017-Sep-18 08:30N 37°47' W 122°21'2 3.1
2017-Sep-18 08:01N 37°48' W 122°23'1 1.9
2017-Sep-18 07:30N 37°48' W 122°24'0 0.0
2017-Sep-18 07:00N 37°48' W 122°24'0 0.0
2017-Sep-18 06:30N 37°48' W 122°24'0 0.0
2017-Sep-18 06:00N 37°48' W 122°24'0 0.0
2017-Sep-18 05:30N 37°48' W 122°24'0 0.0
2017-Sep-18 05:00N 37°48' W 122°24'0 0.0
2017-Sep-18 04:30N 37°48' W 122°24'3 6.4
2017-Sep-18 04:00N 37°46' W 122°20'4 7.7
2017-Sep-18 03:30N 37°49' W 122°24'1 1.6
2017-Sep-18 03:00N 37°48' W 122°24'0 0.0
2017-Sep-18 02:30N 37°48' W 122°24'4 7.2
2017-Sep-18 02:00N 37°49' W 122°28'4 7.2
2017-Sep-18 01:31N 37°48' W 122°24'0 0.0
2017-Sep-18 01:00N 37°48' W 122°24'713.5
2017-Sep-18 00:30N 37°48' W 122°32'3 4.4
2017-Sep-17 23:54N 37°47' W 122°35'821.0
2017-Sep-17 23:30N 37°49' W 122°26'2 3.4
2017-Sep-17 23:00N 37°48' W 122°24'0 0.0
2017-Sep-17 22:30N 37°48' W 122°24'0 0.0
2017-Sep-17 22:00N 37°48' W 122°24'0 0.0
2017-Sep-17 21:30N 37°48' W 122°24'0 0.0
2017-Sep-17 21:00N 37°48' W 122°24'4 7.9
2017-Sep-17 20:31N 37°48' W 122°19'2 4.4
2017-Sep-17 20:00N 37°47' W 122°21'2 4.4
2017-Sep-17 19:30N 37°48' W 122°24'0 0.0
2017-Sep-17 19:00N 37°48' W 122°24'0 0.0
2017-Sep-17 18:30N 37°48' W 122°24'0 0.0
2017-Sep-17 18:00N 37°48' W 122°24'4 7.5
2017-Sep-17 17:30N 37°49' W 122°28'4 7.8
2017-Sep-17 17:00N 37°48' W 122°24'0 0.5
2017-Sep-17 16:30N 37°48' W 122°24'1 2.4
2017-Sep-17 16:01N 37°47' W 122°23'2 4.3
2017-Sep-17 15:30N 37°46' W 122°21'5 9.8
2017-Sep-17 15:00N 37°49' W 122°25'2 4.5
2017-Sep-17 14:31N 37°48' W 122°23'0 0.7
2017-Sep-17 14:00N 37°48' W 122°23'1 1.9
2017-Sep-17 13:30N 37°48' W 122°24'0 0.0
2017-Sep-17 13:00N 37°48' W 122°24'0 0.0
2017-Sep-17 12:30N 37°48' W 122°24'1 3.0
2017-Sep-17 12:01N 37°48' W 122°22'4 8.5
2017-Sep-17 11:30N 37°49' W 122°27'612.2
2017-Sep-17 11:00N 37°48' W 122°20'0 0.1
2017-Sep-17 10:30N 37°48' W 122°20'1 1.8
2017-Sep-17 10:00N 37°48' W 122°21'2 3.9
2017-Sep-17 09:31N 37°48' W 122°23'1 1.5
2017-Sep-17 09:00N 37°48' W 122°24'0 0.0
2017-Sep-17 08:30N 37°48' W 122°24'0 0.0
2017-Sep-17 08:00N 37°48' W 122°24'0 0.0
2017-Sep-17 07:30N 37°48' W 122°24'0 0.0
2017-Sep-17 07:00N 37°48' W 122°24'0 0.0
2017-Sep-17 06:30N 37°48' W 122°24'1 2.9
2017-Sep-17 06:00N 37°49' W 122°23'1 2.8
2017-Sep-17 05:30N 37°48' W 122°24'0 0.0
2017-Sep-17 05:00N 37°48' W 122°24'0 0.0
2017-Sep-17 04:30N 37°48' W 122°24'0 0.0
2017-Sep-17 04:00N 37°48' W 122°24'918.8
2017-Sep-17 03:30N 37°47' W 122°35'3 5.1
2017-Sep-17 03:00N 37°48' W 122°33'611.2
2017-Sep-17 02:31N 37°49' W 122°26'2 3.6
2017-Sep-17 02:00N 37°48' W 122°24'0 0.0
2017-Sep-17 01:30N 37°48' W 122°24'0 0.0
2017-Sep-17 01:00N 37°48' W 122°24'0 0.0
2017-Sep-17 00:30N 37°48' W 122°24'0 0.0
2017-Sep-17 00:00N 37°48' W 122°24'0 0.0
2017-Sep-16 23:30N 37°48' W 122°24'3 6.9
2017-Sep-16 23:01N 37°48' W 122°19'3 5.5
2017-Sep-16 22:30N 37°45' W 122°20'4 8.5
2017-Sep-16 22:00N 37°48' W 122°24'0 0.0
2017-Sep-16 21:30N 37°48' W 122°24'0 0.0
2017-Sep-16 21:00N 37°48' W 122°24'0 0.0
2017-Sep-16 20:30N 37°48' W 122°24'0 0.0
2017-Sep-16 20:00N 37°48' W 122°24'0 0.0
2017-Sep-16 19:30N 37°48' W 122°24'0 0.0
2017-Sep-16 19:00N 37°48' W 122°24'4 7.6
2017-Sep-16 18:31N 37°46' W 122°20'4 7.6
2017-Sep-16 18:00N 37°48' W 122°24'0 0.0
2017-Sep-16 17:30N 37°48' W 122°24'3 6.0
2017-Sep-16 17:01N 37°46' W 122°21'4 8.4
2017-Sep-16 16:30N 37°49' W 122°25'1 1.0
2017-Sep-16 15:56N 37°49' W 122°25'4 9.3
2017-Sep-16 15:31N 37°48' W 122°20'612.9
2017-Sep-16 15:00N 37°49' W 122°28'510.3
2017-Sep-16 14:30N 37°48' W 122°22'4 8.5
2017-Sep-16 14:01N 37°50' W 122°26'3 6.3
2017-Sep-16 13:30N 37°48' W 122°24'0 0.0
2017-Sep-16 13:00N 37°48' W 122°24'2 4.0
2017-Sep-16 12:31N 37°47' W 122°22'611.4
2017-Sep-16 12:00N 37°49' W 122°28'2 3.7
2017-Sep-16 11:31N 37°49' W 122°26'510.5
2017-Sep-16 11:01N 37°48' W 122°20'3 6.4
2017-Sep-16 10:30N 37°48' W 122°24'0 0.0
2017-Sep-16 10:00N 37°48' W 122°24'0 0.0
2017-Sep-16 09:30N 37°48' W 122°24'0 0.0
2017-Sep-16 09:00N 37°48' W 122°24'0 0.0
2017-Sep-16 08:30N 37°48' W 122°24'0 0.0
2017-Sep-16 08:00N 37°48' W 122°24'3 5.9
2017-Sep-16 07:30N 37°49' W 122°20'3 5.9
2017-Sep-16 07:01N 37°48' W 122°24'0 0.0
2017-Sep-16 06:30N 37°48' W 122°24'0 0.0
2017-Sep-16 06:00N 37°48' W 122°24'0 0.0
2017-Sep-16 05:30N 37°48' W 122°24'0 0.0
2017-Sep-16 05:00N 37°48' W 122°24'0 0.0
2017-Sep-16 04:30N 37°48' W 122°24'0 0.0
2017-Sep-16 04:00N 37°48' W 122°24'0 0.1
2017-Sep-16 03:31N 37°48' W 122°24'0 0.1
2017-Sep-16 03:00N 37°48' W 122°24'0 0.0
2017-Sep-16 02:30N 37°48' W 122°24'1020.9
2017-Sep-16 02:01N 37°46' W 122°37'815.2
2017-Sep-16 01:30N 37°49' W 122°28'713.8
2017-Sep-16 01:01N 37°48' W 122°19'2 4.5
2017-Sep-16 00:31N 37°46' W 122°21'1 1.3
2017-Sep-16 00:01N 37°45' W 122°21'3 6.5
2017-Sep-15 23:31N 37°48' W 122°24'4 7.8
2017-Sep-15 23:00N 37°48' W 122°19'2 3.4
2017-Sep-15 22:31N 37°47' W 122°21'3 5.0
2017-Sep-15 22:00N 37°48' W 122°24'0 0.0
2017-Sep-15 21:30N 37°48' W 122°24'612.9
2017-Sep-15 21:01N 37°48' W 122°32'1 2.3
2017-Sep-15 20:25N 37°47' W 122°34'819.5
2017-Sep-15 20:01N 37°48' W 122°24'0 0.3
2017-Sep-15 19:31N 37°48' W 122°24'0 0.0
2017-Sep-15 19:01N 37°48' W 122°24'0 0.0
2017-Sep-15 18:31N 37°48' W 122°24'0 0.0
2017-Sep-15 18:01N 37°48' W 122°24'0 0.0
2017-Sep-15 17:30N 37°48' W 122°24'0 0.0
2017-Sep-15 17:00N 37°48' W 122°24'0 0.0
2017-Sep-15 16:30N 37°48' W 122°24'3 6.0
2017-Sep-15 16:00N 37°48' W 122°20'1 1.5
2017-Sep-15 15:30N 37°48' W 122°21'3 4.9
2017-Sep-15 14:59N 37°48' W 122°24'0 0.0
2017-Sep-15 14:30N 37°48' W 122°24'0 0.0
2017-Sep-15 14:00N 37°48' W 122°24'3 6.5
2017-Sep-15 13:30N 37°48' W 122°20'4 7.7
2017-Sep-15 13:01N 37°49' W 122°24'1 1.7
2017-Sep-15 12:30N 37°48' W 122°24'0 0.0
2017-Sep-15 12:00N 37°48' W 122°24'0 0.0
2017-Sep-15 11:30N 37°48' W 122°24'0 0.0
2017-Sep-15 10:59N 37°48' W 122°24'0 0.0
2017-Sep-15 10:31N 37°48' W 122°24'0 0.0
2017-Sep-15 10:00N 37°48' W 122°24'0 0.0
2017-Sep-15 09:31N 37°48' W 122°24'0 0.0
2017-Sep-15 09:01N 37°48' W 122°24'0 0.0
2017-Sep-15 08:30N 37°48' W 122°24'0 0.0
2017-Sep-15 08:00N 37°48' W 122°24'0 0.0
2017-Sep-15 07:30N 37°48' W 122°24'0 0.0
2017-Sep-15 07:00N 37°48' W 122°24'0 0.0
2017-Sep-15 06:30N 37°48' W 122°24'0 0.0
2017-Sep-15 06:00N 37°48' W 122°24'0 0.0
2017-Sep-15 05:31N 37°48' W 122°24'0 0.0
2017-Sep-15 05:00N 37°48' W 122°24'3 5.7
2017-Sep-15 04:31N 37°46' W 122°21'2 4.3
2017-Sep-15 04:00N 37°48' W 122°20'3 6.0
2017-Sep-15 03:30N 37°48' W 122°24'0 0.0
2017-Sep-15 03:00N 37°48' W 122°24'0 0.0
2017-Sep-15 02:30N 37°48' W 122°24'0 0.0
2017-Sep-15 02:00N 37°48' W 122°24'3 5.4
2017-Sep-15 01:31N 37°49' W 122°20'4 7.4
2017-Sep-15 01:00N 37°49' W 122°25'1 2.7
2017-Sep-15 00:30N 37°48' W 122°24'0 0.0
2017-Sep-15 00:00N 37°48' W 122°24'0 0.0
2017-Sep-14 23:31N 37°48' W 122°24'1 2.4
2017-Sep-14 23:00N 37°49' W 122°25'4 7.7
2017-Sep-14 22:30N 37°49' W 122°20'3 5.7
2017-Sep-14 22:00N 37°48' W 122°24'0 0.3
2017-Sep-14 21:31N 37°48' W 122°24'3 6.6
2017-Sep-14 21:01N 37°48' W 122°20'3 6.7
2017-Sep-14 20:31N 37°48' W 122°24'510.0
2017-Sep-14 20:00N 37°47' W 122°17'0 0.0
2017-Sep-14 19:31N 37°47' W 122°17'0 0.0
2017-Sep-14 19:00N 37°47' W 122°17'0 0.0
2017-Sep-14 18:31N 37°47' W 122°17'0 0.0
2017-Sep-14 18:00N 37°47' W 122°17'0 0.0
2017-Sep-14 17:30N 37°47' W 122°17'0 0.0
2017-Sep-14 17:00N 37°47' W 122°17'0 0.0
2017-Sep-14 16:30N 37°47' W 122°17'0 0.0
2017-Sep-14 16:01N 37°47' W 122°17'0 0.0
2017-Sep-14 15:30N 37°47' W 122°17'1 2.2
2017-Sep-14 15:00N 37°48' W 122°19'3 5.3
2017-Sep-14 14:30N 37°48' W 122°22'2 3.8
2017-Sep-14 14:01N 37°49' W 122°24'4 8.5
2017-Sep-14 13:31N 37°48' W 122°19'1 1.1
2017-Sep-14 13:01N 37°48' W 122°20'3 5.2
2017-Sep-14 12:31N 37°45' W 122°20'5 9.6
2017-Sep-14 12:00N 37°49' W 122°24'4 8.0
2017-Sep-14 11:30N 37°48' W 122°19'3 6.9
2017-Sep-14 11:00N 37°48' W 122°24'0 0.0
2017-Sep-14 10:30N 37°48' W 122°24'0 0.0
2017-Sep-14 10:00N 37°48' W 122°24'0 0.0
2017-Sep-14 09:30N 37°48' W 122°24'0 0.0
2017-Sep-14 09:00N 37°48' W 122°24'3 5.9
2017-Sep-14 08:30N 37°49' W 122°20'612.6
2017-Sep-14 08:00N 37°49' W 122°28'4 7.1
2017-Sep-14 07:30N 37°48' W 122°24'0 0.0
2017-Sep-14 07:01N 37°48' W 122°24'0 0.0
2017-Sep-14 06:30N 37°48' W 122°24'0 0.0
2017-Sep-14 06:01N 37°48' W 122°24'0 0.0
2017-Sep-14 05:30N 37°48' W 122°24'0 0.0
2017-Sep-14 05:00N 37°48' W 122°24'0 0.0
2017-Sep-14 04:31N 37°48' W 122°24'0 0.0
2017-Sep-14 04:00N 37°48' W 122°24'0 0.0
2017-Sep-14 03:31N 37°48' W 122°24'0 0.0
2017-Sep-14 03:00N 37°48' W 122°24'0 0.0
2017-Sep-14 02:30N 37°48' W 122°24'0 0.0
2017-Sep-14 02:00N 37°48' W 122°24'0 0.0
2017-Sep-14 01:31N 37°48' W 122°24'0 0.0
2017-Sep-14 01:00N 37°48' W 122°24'0 0.0
2017-Sep-14 00:31N 37°48' W 122°24'1 3.0
2017-Sep-14 00:01N 37°50' W 122°23'1 3.0
2017-Sep-13 23:30N 37°48' W 122°24'0 0.0
2017-Sep-13 23:00N 37°48' W 122°24'0 0.0
2017-Sep-13 22:30N 37°48' W 122°24'0 0.0
2017-Sep-13 22:00N 37°48' W 122°24'0 0.0
2017-Sep-13 21:30N 37°48' W 122°24'0 0.0
2017-Sep-13 21:00N 37°48' W 122°24'0 0.0
2017-Sep-13 20:30N 37°48' W 122°24'0 0.0
2017-Sep-13 20:00N 37°48' W 122°24'0 0.0
2017-Sep-13 19:30N 37°48' W 122°24'0 0.0
2017-Sep-13 19:00N 37°48' W 122°24'0 0.0
2017-Sep-13 18:30N 37°48' W 122°24'0 0.0
2017-Sep-13 18:00N 37°48' W 122°24'0 0.0
2017-Sep-13 17:30N 37°48' W 122°24'0 0.0
2017-Sep-13 17:00N 37°48' W 122°24'0 0.0
2017-Sep-13 16:30N 37°48' W 122°24'1 2.5
2017-Sep-13 16:00N 37°49' W 122°25'0 0.3
2017-Sep-13 15:30N 37°49' W 122°25'611.4
2017-Sep-13 15:00N 37°48' W 122°18'0 0.2
2017-Sep-13 14:31N 37°48' W 122°18'5 9.0
2017-Sep-13 14:00N 37°48' W 122°24'3 6.5
2017-Sep-13 13:31N 37°49' W 122°20'1 1.7
2017-Sep-13 13:01N 37°48' W 122°20'5 9.2
2017-Sep-13 12:30N 37°49' W 122°25'1 3.0
2017-Sep-13 12:00N 37°48' W 122°24'0 0.0
2017-Sep-13 11:30N 37°48' W 122°24'2 3.1
2017-Sep-13 11:00N 37°49' W 122°25'2 3.0
2017-Sep-13 10:30N 37°48' W 122°24'0 0.0
2017-Sep-13 10:00N 37°48' W 122°24'0 0.0
2017-Sep-13 09:30N 37°48' W 122°24'0 0.0
2017-Sep-13 09:00N 37°48' W 122°24'3 5.3
2017-Sep-13 08:31N 37°49' W 122°20'2 4.2
2017-Sep-13 08:01N 37°47' W 122°22'2 3.2
2017-Sep-13 07:30N 37°48' W 122°24'0 0.0
2017-Sep-13 07:00N 37°48' W 122°24'0 0.0
2017-Sep-13 06:30N 37°48' W 122°24'0 0.0
2017-Sep-13 06:00N 37°48' W 122°24'0 0.0
2017-Sep-13 05:30N 37°48' W 122°24'0 0.0
2017-Sep-13 05:00N 37°48' W 122°24'0 0.0
2017-Sep-13 04:30N 37°48' W 122°24'0 0.0
2017-Sep-13 04:00N 37°48' W 122°24'0 0.0
2017-Sep-13 03:30N 37°48' W 122°24'0 0.0
2017-Sep-13 03:00N 37°48' W 122°24'0 0.0
2017-Sep-13 02:30N 37°48' W 122°24'0 0.0
2017-Sep-13 02:00N 37°48' W 122°24'0 0.0
2017-Sep-13 01:30N 37°48' W 122°24'0 0.0
2017-Sep-13 00:59N 37°48' W 122°24'0 0.0
2017-Sep-13 00:30N 37°48' W 122°24'2 4.7
2017-Sep-13 00:00N 37°49' W 122°26'2 4.7
2017-Sep-12 23:30N 37°48' W 122°24'0 0.0
2017-Sep-12 23:00N 37°48' W 122°24'2 3.8
2017-Sep-12 22:30N 37°47' W 122°22'2 3.7
2017-Sep-12 22:00N 37°48' W 122°24'0 0.0
2017-Sep-12 21:30N 37°48' W 122°24'0 0.0
2017-Sep-12 21:00N 37°48' W 122°24'0 0.0
2017-Sep-12 20:30N 37°48' W 122°24'0 0.0
2017-Sep-12 20:00N 37°48' W 122°24'0 0.0
2017-Sep-12 19:30N 37°48' W 122°24'1 1.9
2017-Sep-12 19:01N 37°48' W 122°23'1 1.9
2017-Sep-12 18:30N 37°48' W 122°24'0 0.0
2017-Sep-12 18:01N 37°48' W 122°24'0 0.0
2017-Sep-12 17:30N 37°48' W 122°24'0 0.0
2017-Sep-12 17:01N 37°48' W 122°24'0 0.0
2017-Sep-12 16:30N 37°48' W 122°24'0 0.0
2017-Sep-12 16:01N 37°48' W 122°24'0 0.0
2017-Sep-12 15:31N 37°48' W 122°24'0 0.0
2017-Sep-12 15:00N 37°48' W 122°24'1 1.2
2017-Sep-12 14:30N 37°49' W 122°24'1 1.6
2017-Sep-12 14:01N 37°49' W 122°25'510.5
2017-Sep-12 13:30N 37°45' W 122°20'4 8.4
2017-Sep-12 13:00N 37°48' W 122°24'0 0.0
2017-Sep-12 12:30N 37°48' W 122°24'0 0.1
2017-Sep-12 12:00N 37°48' W 122°24'3 6.5
2017-Sep-12 11:31N 37°46' W 122°21'3 4.5
2017-Sep-12 10:49N 37°48' W 122°24'412.4
2017-Sep-12 10:31N 37°45' W 122°21'4 5.5
2017-Sep-12 09:50N 37°48' W 122°24'0 0.9
2017-Sep-12 09:30N 37°48' W 122°23'1 2.7
2017-Sep-12 09:00N 37°49' W 122°25'1 2.2
2017-Sep-12 08:30N 37°49' W 122°26'5 9.5
2017-Sep-12 08:00N 37°49' W 122°20'1 1.1
2017-Sep-12 07:31N 37°48' W 122°20'3 5.7
2017-Sep-12 07:00N 37°48' W 122°24'1 1.8
2017-Sep-12 06:31N 37°48' W 122°23'2 4.6
2017-Sep-12 06:01N 37°46' W 122°21'2 4.4
2017-Sep-12 05:31N 37°48' W 122°21'4 8.8
2017-Sep-12 05:00N 37°49' W 122°26'510.7
2017-Sep-12 04:30N 37°48' W 122°19'3 6.8
2017-Sep-12 04:00N 37°48' W 122°24'0 0.0
2017-Sep-12 03:30N 37°48' W 122°24'0 0.0
2017-Sep-12 03:00N 37°48' W 122°24'0 0.0
2017-Sep-12 02:30N 37°48' W 122°24'  
Track history (hours):
 
Tides and Currents Weather Stations Pressure Air Temp Water Temp Dewpoint Dewpoint Depression Visibility Wind Speed Wind Dir Waves Ship Positions

P/v Golden Gate

Owner: San Francisco Bar Pilots Benevolent and Protective, San Francisco, CA. More information available from US FCC via Universal Licensing System and Coast Guard Vessel Documentation Center.

Last reported at 2017-Sep-22 02:00 UTC. Time now 2017-Sep-23 05:50 UTC.
Position N 37°49' W 122°29'.

Length 21 m.

Type: Pilot. MMSI: 367370010.

Date/timePositionNaut miles runAvg speedWind from/ knotsBaromVisibWave heightAir tempDewpointWater temp
2017-Sep-22 02:00N 37°49' W 122°29'815.0
2017-Sep-22 01:30N 37°48' W 122°20'1 1.7
2017-Sep-22 01:01N 37°48' W 122°19'3 7.0
2017-Sep-22 00:30N 37°44' W 122°20'5 9.2
2017-Sep-22 00:01N 37°48' W 122°24'0 0.4
2017-Sep-21 23:30N 37°48' W 122°24'0 0.0
2017-Sep-21 23:00N 37°48' W 122°24'1 1.0
2017-Sep-21 22:31N 37°49' W 122°24'713.1
2017-Sep-21 22:00N 37°48' W 122°32'815.2
2017-Sep-21 21:30N 37°46' W 122°22'1 1.4
2017-Sep-21 21:01N 37°45' W 122°22'3 6.3
2017-Sep-21 20:30N 37°48' W 122°24'0 0.0
2017-Sep-21 20:00N 37°48' W 122°24'0 0.0
2017-Sep-21 19:30N 37°48' W 122°24'0 0.0
2017-Sep-21 19:00N 37°48' W 122°24'2 3.8
2017-Sep-21 18:31N 37°47' W 122°22'2 3.7
2017-Sep-21 18:00N 37°48' W 122°24'0 0.0
2017-Sep-21 17:30N 37°48' W 122°24'0 0.0
2017-Sep-21 17:00N 37°48' W 122°24'0 0.0
2017-Sep-21 16:30N 37°48' W 122°24'1 2.5
2017-Sep-21 16:00N 37°49' W 122°25'0 0.1
2017-Sep-21 15:30N 37°49' W 122°25'510.9
2017-Sep-21 15:01N 37°45' W 122°20'1 2.5
2017-Sep-21 14:30N 37°46' W 122°21'3 6.4
2017-Sep-21 14:00N 37°48' W 122°24'0 0.0
2017-Sep-21 13:30N 37°48' W 122°24'0 0.0
2017-Sep-21 13:00N 37°48' W 122°24'0 0.0
2017-Sep-21 12:31N 37°48' W 122°24'0 0.0
2017-Sep-21 12:00N 37°48' W 122°24'0 0.0
2017-Sep-21 11:30N 37°48' W 122°24'0 0.0
2017-Sep-21 11:00N 37°48' W 122°24'0 0.0
2017-Sep-21 10:31N 37°48' W 122°24'0 0.0
2017-Sep-21 10:00N 37°48' W 122°24'4 7.3
2017-Sep-21 09:30N 37°46' W 122°20'4 7.2
2017-Sep-21 09:01N 37°48' W 122°24'0 0.3
2017-Sep-21 08:31N 37°48' W 122°24'1121.9
2017-Sep-21 08:00N 37°46' W 122°37'1019.1
2017-Sep-21 07:30N 37°49' W 122°26'2 3.9
2017-Sep-21 07:01N 37°48' W 122°24'1 2.4
2017-Sep-21 06:30N 37°47' W 122°23'1 2.0
2017-Sep-21 06:00N 37°48' W 122°23'0 1.0
2017-Sep-21 05:30N 37°49' W 122°23'0 0.9
2017-Sep-21 05:01N 37°48' W 122°24'510.2
2017-Sep-21 04:30N 37°44' W 122°20'510.2
2017-Sep-21 04:01N 37°48' W 122°24'0 0.0
2017-Sep-21 03:30N 37°48' W 122°24'4 8.3
2017-Sep-21 03:00N 37°48' W 122°19'1 2.4
2017-Sep-21 02:31N 37°48' W 122°20'1 1.1
2017-Sep-21 02:00N 37°48' W 122°21'2 4.1
2017-Sep-21 01:30N 37°46' W 122°20'3 5.1
2017-Sep-21 01:01N 37°49' W 122°20'4 7.1
2017-Sep-21 00:31N 37°45' W 122°21'4 7.1
2017-Sep-21 00:01N 37°48' W 122°24'2 4.7
2017-Sep-20 23:30N 37°47' W 122°21'2 4.0
2017-Sep-20 23:00N 37°48' W 122°23'1 1.6
2017-Sep-20 22:30N 37°48' W 122°24'0 0.0
2017-Sep-20 22:00N 37°48' W 122°24'0 0.0
2017-Sep-20 21:30N 37°48' W 122°24'0 0.0
2017-Sep-20 21:00N 37°48' W 122°24'3 6.5
2017-Sep-20 20:31N 37°46' W 122°21'2 4.4
2017-Sep-20 20:01N 37°48' W 122°20'0 0.0
2017-Sep-20 19:30N 37°48' W 122°20'3 6.7
2017-Sep-20 19:00N 37°48' W 122°24'0 0.0
2017-Sep-20 18:30N 37°48' W 122°24'0 0.0
2017-Sep-20 18:00N 37°48' W 122°24'0 0.0
2017-Sep-20 17:30N 37°48' W 122°24'0 0.0
2017-Sep-20 17:00N 37°48' W 122°24'0 0.0
2017-Sep-20 16:30N 37°48' W 122°24'0 0.0
2017-Sep-20 16:00N 37°48' W 122°24'0 0.0
2017-Sep-20 15:30N 37°48' W 122°24'0 0.0
2017-Sep-20 14:59N 37°48' W 122°24'0 0.0
2017-Sep-20 14:00N 37°48' W 122°24'0 0.0
2017-Sep-20 13:30N 37°48' W 122°24'0 0.0
2017-Sep-20 13:00N 37°48' W 122°24'0 0.0
2017-Sep-20 12:30N 37°48' W 122°24'0 0.0
2017-Sep-20 12:00N 37°48' W 122°24'0 0.0
2017-Sep-20 11:30N 37°48' W 122°24'0 0.0
2017-Sep-20 11:00N 37°48' W 122°24'0 0.0
2017-Sep-20 10:30N 37°48' W 122°24'0 0.0
2017-Sep-20 10:00N 37°48' W 122°24'0 0.0
2017-Sep-20 09:30N 37°48' W 122°24'0 0.0
2017-Sep-20 09:00N 37°48' W 122°24'0 0.0
2017-Sep-20 08:30N 37°48' W 122°24'0 0.0
2017-Sep-20 08:00N 37°48' W 122°24'0 0.0
2017-Sep-20 07:30N 37°48' W 122°24'0 0.0
2017-Sep-20 07:00N 37°48' W 122°24'0 0.0
2017-Sep-20 06:30N 37°48' W 122°24'0 0.0
2017-Sep-20 06:00N 37°48' W 122°24'0 0.0
2017-Sep-20 05:30N 37°48' W 122°24'0 0.1
2017-Sep-20 05:00N 37°48' W 122°24'0 0.1
2017-Sep-20 04:31N 37°48' W 122°24'1 1.2
2017-Sep-20 04:01N 37°48' W 122°23'2 4.2
2017-Sep-20 03:30N 37°46' W 122°21'2 3.8
2017-Sep-20 03:01N 37°45' W 122°20'5 9.0
2017-Sep-20 02:30N 37°48' W 122°24'1 2.2
2017-Sep-20 02:00N 37°47' W 122°23'0 0.0
2017-Sep-20 01:30N 37°47' W 122°23'2 3.4
2017-Sep-20 01:01N 37°47' W 122°21'2 4.9
2017-Sep-20 00:30N 37°48' W 122°24'0 0.0
2017-Sep-19 23:59N 37°48' W 122°24'0 0.0
2017-Sep-19 23:30N 37°48' W 122°24'0 0.0
2017-Sep-19 23:00N 37°48' W 122°24'0 0.0
2017-Sep-19 22:30N 37°48' W 122°24'0 0.0
2017-Sep-19 22:00N 37°48' W 122°24'3 6.8
2017-Sep-19 21:31N 37°48' W 122°20'3 6.6
2017-Sep-19 21:01N 37°48' W 122°24'0 0.2
2017-Sep-19 20:30N 37°48' W 122°24'0 0.0
2017-Sep-19 20:00N 37°48' W 122°24'0 0.0
2017-Sep-19 19:31N 37°48' W 122°24'0 0.0
2017-Sep-19 19:00N 37°48' W 122°24'0 0.0
2017-Sep-19 18:30N 37°48' W 122°24'0 0.0
2017-Sep-19 18:00N 37°48' W 122°24'0 0.0
2017-Sep-19 17:30N 37°48' W 122°24'0 0.2
2017-Sep-19 17:01N 37°48' W 122°24'1 2.1
2017-Sep-19 16:25N 37°49' W 122°25'511.3
2017-Sep-19 16:00N 37°48' W 122°19'4 8.3
2017-Sep-19 15:31N 37°49' W 122°24'4 8.8
2017-Sep-19 15:01N 37°48' W 122°19'0 0.3
2017-Sep-19 14:31N 37°48' W 122°19'2 3.0
2017-Sep-19 14:01N 37°48' W 122°21'2 4.9
2017-Sep-19 13:31N 37°48' W 122°24'3 5.6
2017-Sep-19 13:01N 37°49' W 122°27'3 5.6
2017-Sep-19 12:30N 37°48' W 122°24'0 0.0
2017-Sep-19 12:00N 37°48' W 122°24'0 0.0
2017-Sep-19 11:30N 37°48' W 122°24'0 0.0
2017-Sep-19 11:00N 37°48' W 122°24'0 0.0
2017-Sep-19 10:30N 37°48' W 122°24'0 0.0
2017-Sep-19 10:00N 37°48' W 122°24'0 0.0
2017-Sep-19 09:30N 37°48' W 122°24'4 7.2
2017-Sep-19 09:00N 37°49' W 122°28'4 7.2
2017-Sep-19 08:31N 37°48' W 122°24'0 0.0
2017-Sep-19 08:00N 37°48' W 122°24'0 0.0
2017-Sep-19 07:30N 37°48' W 122°24'0 0.0
2017-Sep-19 07:00N 37°48' W 122°24'0 0.0
2017-Sep-19 06:30N 37°48' W 122°24'0 0.0
2017-Sep-19 06:00N 37°48' W 122°24'1 2.2
2017-Sep-19 05:30N 37°49' W 122°24'1 1.3
2017-Sep-19 05:00N 37°49' W 122°25'1 2.7
2017-Sep-19 04:30N 37°48' W 122°24'0 0.0
2017-Sep-19 04:00N 37°48' W 122°24'2 3.1
2017-Sep-19 03:31N 37°47' W 122°22'2 3.1
2017-Sep-19 03:00N 37°48' W 122°24'0 0.0
2017-Sep-19 02:30N 37°48' W 122°24'0 0.0
2017-Sep-19 02:00N 37°48' W 122°24'0 0.0
2017-Sep-19 01:30N 37°48' W 122°24'0 0.0
2017-Sep-19 01:00N 37°48' W 122°24'2 4.9
2017-Sep-19 00:30N 37°48' W 122°21'2 4.9
2017-Sep-19 00:00N 37°48' W 122°24'3 5.5
2017-Sep-18 23:30N 37°48' W 122°20'3 5.5
2017-Sep-18 23:01N 37°48' W 122°24'3 5.3
2017-Sep-18 22:30N 37°46' W 122°21'1 1.6
2017-Sep-18 22:00N 37°47' W 122°21'2 4.9
2017-Sep-18 21:30N 37°48' W 122°24'1 1.4
2017-Sep-18 21:01N 37°49' W 122°24'917.7
2017-Sep-18 20:31N 37°47' W 122°35'3 5.3
2017-Sep-18 20:01N 37°48' W 122°32'1019.0
2017-Sep-18 19:30N 37°48' W 122°20'3 6.4
2017-Sep-18 19:00N 37°48' W 122°24'0 0.0
2017-Sep-18 18:30N 37°48' W 122°24'0 0.0
2017-Sep-18 18:00N 37°48' W 122°24'0 0.0
2017-Sep-18 17:30N 37°48' W 122°24'3 5.5
2017-Sep-18 17:00N 37°46' W 122°22'1 2.6
2017-Sep-18 16:31N 37°47' W 122°21'3 5.2
2017-Sep-18 16:00N 37°48' W 122°24'0 0.0
2017-Sep-18 15:30N 37°48' W 122°24'1 1.4
2017-Sep-18 14:36N 37°49' W 122°25'0 0.0
2017-Sep-18 14:31N 37°49' W 122°25'4 8.9
2017-Sep-18 14:01N 37°46' W 122°20'2 3.5
2017-Sep-18 13:31N 37°48' W 122°21'3 4.9
2017-Sep-18 13:00N 37°48' W 122°24'0 0.0
2017-Sep-18 12:30N 37°48' W 122°24'0 0.0
2017-Sep-18 12:00N 37°48' W 122°24'0 0.4
2017-Sep-18 11:30N 37°48' W 122°24'918.3
2017-Sep-18 11:00N 37°47' W 122°35'1 2.3
2017-Sep-18 10:30N 37°47' W 122°34'816.2
2017-Sep-18 10:00N 37°48' W 122°24'0 0.0
2017-Sep-18 09:30N 37°48' W 122°24'0 0.0
2017-Sep-18 09:00N 37°48' W 122°24'2 4.9
2017-Sep-18 08:30N 37°47' W 122°21'2 3.1
2017-Sep-18 08:01N 37°48' W 122°23'1 1.9
2017-Sep-18 07:30N 37°48' W 122°24'0 0.0
2017-Sep-18 07:00N 37°48' W 122°24'0 0.0
2017-Sep-18 06:30N 37°48' W 122°24'0 0.0
2017-Sep-18 06:00N 37°48' W 122°24'0 0.0
2017-Sep-18 05:30N 37°48' W 122°24'0 0.0
2017-Sep-18 05:00N 37°48' W 122°24'0 0.0
2017-Sep-18 04:30N 37°48' W 122°24'3 6.4
2017-Sep-18 04:00N 37°46' W 122°20'4 7.7
2017-Sep-18 03:30N 37°49' W 122°24'1 1.6
2017-Sep-18 03:00N 37°48' W 122°24'0 0.0
2017-Sep-18 02:30N 37°48' W 122°24'4 7.2
2017-Sep-18 02:00N 37°49' W 122°28'4 7.2
2017-Sep-18 01:31N 37°48' W 122°24'0 0.0
2017-Sep-18 01:00N 37°48' W 122°24'713.5
2017-Sep-18 00:30N 37°48' W 122°32'3 4.4
2017-Sep-17 23:54N 37°47' W 122°35'821.0
2017-Sep-17 23:30N 37°49' W 122°26'2 3.4
2017-Sep-17 23:00N 37°48' W 122°24'0 0.0
2017-Sep-17 22:30N 37°48' W 122°24'0 0.0
2017-Sep-17 22:00N 37°48' W 122°24'0 0.0
2017-Sep-17 21:30N 37°48' W 122°24'0 0.0
2017-Sep-17 21:00N 37°48' W 122°24'4 7.9
2017-Sep-17 20:31N 37°48' W 122°19'2 4.4
2017-Sep-17 20:00N 37°47' W 122°21'2 4.4
2017-Sep-17 19:30N 37°48' W 122°24'0 0.0
2017-Sep-17 19:00N 37°48' W 122°24'0 0.0
2017-Sep-17 18:30N 37°48' W 122°24'0 0.0
2017-Sep-17 18:00N 37°48' W 122°24'4 7.5
2017-Sep-17 17:30N 37°49' W 122°28'4 7.8
2017-Sep-17 17:00N 37°48' W 122°24'0 0.5
2017-Sep-17 16:30N 37°48' W 122°24'1 2.4
2017-Sep-17 16:01N 37°47' W 122°23'2 4.3
2017-Sep-17 15:30N 37°46' W 122°21'5 9.8
2017-Sep-17 15:00N 37°49' W 122°25'2 4.5
2017-Sep-17 14:31N 37°48' W 122°23'0 0.7
2017-Sep-17 14:00N 37°48' W 122°23'1 1.9
2017-Sep-17 13:30N 37°48' W 122°24'0 0.0
2017-Sep-17 13:00N 37°48' W 122°24'0 0.0
2017-Sep-17 12:30N 37°48' W 122°24'1 3.0
2017-Sep-17 12:01N 37°48' W 122°22'4 8.5
2017-Sep-17 11:30N 37°49' W 122°27'612.2
2017-Sep-17 11:00N 37°48' W 122°20'0 0.1
2017-Sep-17 10:30N 37°48' W 122°20'1 1.8
2017-Sep-17 10:00N 37°48' W 122°21'2 3.9
2017-Sep-17 09:31N 37°48' W 122°23'1 1.5
2017-Sep-17 09:00N 37°48' W 122°24'0 0.0
2017-Sep-17 08:30N 37°48' W 122°24'0 0.0
2017-Sep-17 08:00N 37°48' W 122°24'0 0.0
2017-Sep-17 07:30N 37°48' W 122°24'0 0.0
2017-Sep-17 07:00N 37°48' W 122°24'0 0.0
2017-Sep-17 06:30N 37°48' W 122°24'1 2.9
2017-Sep-17 06:00N 37°49' W 122°23'1 2.8
2017-Sep-17 05:30N 37°48' W 122°24'0 0.0
2017-Sep-17 05:00N 37°48' W 122°24'0 0.0
2017-Sep-17 04:30N 37°48' W 122°24'0 0.0
2017-Sep-17 04:00N 37°48' W 122°24'918.8
2017-Sep-17 03:30N 37°47' W 122°35'3 5.1
2017-Sep-17 03:00N 37°48' W 122°33'611.2
2017-Sep-17 02:31N 37°49' W 122°26'2 3.6
2017-Sep-17 02:00N 37°48' W 122°24'0 0.0
2017-Sep-17 01:30N 37°48' W 122°24'0 0.0
2017-Sep-17 01:00N 37°48' W 122°24'0 0.0
2017-Sep-17 00:30N 37°48' W 122°24'0 0.0
2017-Sep-17 00:00N 37°48' W 122°24'0 0.0
2017-Sep-16 23:30N 37°48' W 122°24'3 6.9
2017-Sep-16 23:01N 37°48' W 122°19'3 5.5
2017-Sep-16 22:30N 37°45' W 122°20'4 8.5
2017-Sep-16 22:00N 37°48' W 122°24'0 0.0
2017-Sep-16 21:30N 37°48' W 122°24'0 0.0
2017-Sep-16 21:00N 37°48' W 122°24'0 0.0
2017-Sep-16 20:30N 37°48' W 122°24'0 0.0
2017-Sep-16 20:00N 37°48' W 122°24'0 0.0
2017-Sep-16 19:30N 37°48' W 122°24'0 0.0
2017-Sep-16 19:00N 37°48' W 122°24'4 7.6
2017-Sep-16 18:31N 37°46' W 122°20'4 7.6
2017-Sep-16 18:00N 37°48' W 122°24'0 0.0
2017-Sep-16 17:30N 37°48' W 122°24'3 6.0
2017-Sep-16 17:01N 37°46' W 122°21'4 8.4
2017-Sep-16 16:30N 37°49' W 122°25'1 1.0
2017-Sep-16 15:56N 37°49' W 122°25'4 9.3
2017-Sep-16 15:31N 37°48' W 122°20'612.9
2017-Sep-16 15:00N 37°49' W 122°28'510.3
2017-Sep-16 14:30N 37°48' W 122°22'4 8.5
2017-Sep-16 14:01N 37°50' W 122°26'3 6.3
2017-Sep-16 13:30N 37°48' W 122°24'0 0.0
2017-Sep-16 13:00N 37°48' W 122°24'2 4.0
2017-Sep-16 12:31N 37°47' W 122°22'611.4
2017-Sep-16 12:00N 37°49' W 122°28'2 3.7
2017-Sep-16 11:31N 37°49' W 122°26'510.5
2017-Sep-16 11:01N 37°48' W 122°20'3 6.4
2017-Sep-16 10:30N 37°48' W 122°24'0 0.0
2017-Sep-16 10:00N 37°48' W 122°24'0 0.0
2017-Sep-16 09:30N 37°48' W 122°24'0 0.0
2017-Sep-16 09:00N 37°48' W 122°24'0 0.0
2017-Sep-16 08:30N 37°48' W 122°24'0 0.0
2017-Sep-16 08:00N 37°48' W 122°24'3 5.9
2017-Sep-16 07:30N 37°49' W 122°20'3 5.9
2017-Sep-16 07:01N 37°48' W 122°24'0 0.0
2017-Sep-16 06:30N 37°48' W 122°24'0 0.0
2017-Sep-16 06:00N 37°48' W 122°24'0 0.0
2017-Sep-16 05:30N 37°48' W 122°24'0 0.0
2017-Sep-16 05:00N 37°48' W 122°24'0 0.0
2017-Sep-16 04:30N 37°48' W 122°24'0 0.0
2017-Sep-16 04:00N 37°48' W 122°24'0 0.1
2017-Sep-16 03:31N 37°48' W 122°24'0 0.1
2017-Sep-16 03:00N 37°48' W 122°24'0 0.0
2017-Sep-16 02:30N 37°48' W 122°24'1020.9
2017-Sep-16 02:01N 37°46' W 122°37'815.2
2017-Sep-16 01:30N 37°49' W 122°28'713.8
2017-Sep-16 01:01N 37°48' W 122°19'2 4.5
2017-Sep-16 00:31N 37°46' W 122°21'1 1.3
2017-Sep-16 00:01N 37°45' W 122°21'3 6.5
2017-Sep-15 23:31N 37°48' W 122°24'4 7.8
2017-Sep-15 23:00N 37°48' W 122°19'2 3.4
2017-Sep-15 22:31N 37°47' W 122°21'3 5.0
2017-Sep-15 22:00N 37°48' W 122°24'0 0.0
2017-Sep-15 21:30N 37°48' W 122°24'612.9
2017-Sep-15 21:01N 37°48' W 122°32'1 2.3
2017-Sep-15 20:25N 37°47' W 122°34'819.5
2017-Sep-15 20:01N 37°48' W 122°24'0 0.3
2017-Sep-15 19:31N 37°48' W 122°24'0 0.0
2017-Sep-15 19:01N 37°48' W 122°24'0 0.0
2017-Sep-15 18:31N 37°48' W 122°24'0 0.0
2017-Sep-15 18:01N 37°48' W 122°24'0 0.0
2017-Sep-15 17:30N 37°48' W 122°24'0 0.0
2017-Sep-15 17:00N 37°48' W 122°24'0 0.0
2017-Sep-15 16:30N 37°48' W 122°24'3 6.0
2017-Sep-15 16:00N 37°48' W 122°20'1 1.5
2017-Sep-15 15:30N 37°48' W 122°21'3 4.9
2017-Sep-15 14:59N 37°48' W 122°24'0 0.0
2017-Sep-15 14:30N 37°48' W 122°24'0 0.0
2017-Sep-15 14:00N 37°48' W 122°24'3 6.5
2017-Sep-15 13:30N 37°48' W 122°20'4 7.7
2017-Sep-15 13:01N 37°49' W 122°24'1 1.7
2017-Sep-15 12:30N 37°48' W 122°24'0 0.0
2017-Sep-15 12:00N 37°48' W 122°24'0 0.0
2017-Sep-15 11:30N 37°48' W 122°24'0 0.0
2017-Sep-15 10:59N 37°48' W 122°24'0 0.0
2017-Sep-15 10:31N 37°48' W 122°24'0 0.0
2017-Sep-15 10:00N 37°48' W 122°24'0 0.0
2017-Sep-15 09:31N 37°48' W 122°24'0 0.0
2017-Sep-15 09:01N 37°48' W 122°24'0 0.0
2017-Sep-15 08:30N 37°48' W 122°24'0 0.0
2017-Sep-15 08:00N 37°48' W 122°24'0 0.0
2017-Sep-15 07:30N 37°48' W 122°24'0 0.0
2017-Sep-15 07:00N 37°48' W 122°24'0 0.0
2017-Sep-15 06:30N 37°48' W 122°24'0 0.0
2017-Sep-15 06:00N 37°48' W 122°24'0 0.0
2017-Sep-15 05:31N 37°48' W 122°24'0 0.0
2017-Sep-15 05:00N 37°48' W 122°24'3 5.7
2017-Sep-15 04:31N 37°46' W 122°21'2 4.3
2017-Sep-15 04:00N 37°48' W 122°20'3 6.0
2017-Sep-15 03:30N 37°48' W 122°24'0 0.0
2017-Sep-15 03:00N 37°48' W 122°24'0 0.0
2017-Sep-15 02:30N 37°48' W 122°24'0 0.0
2017-Sep-15 02:00N 37°48' W 122°24'3 5.4
2017-Sep-15 01:31N 37°49' W 122°20'4 7.4
2017-Sep-15 01:00N 37°49' W 122°25'1 2.7
2017-Sep-15 00:30N 37°48' W 122°24'0 0.0
2017-Sep-15 00:00N 37°48' W 122°24'0 0.0
2017-Sep-14 23:31N 37°48' W 122°24'1 2.4
2017-Sep-14 23:00N 37°49' W 122°25'4 7.7
2017-Sep-14 22:30N 37°49' W 122°20'3 5.7
2017-Sep-14 22:00N 37°48' W 122°24'0 0.3
2017-Sep-14 21:31N 37°48' W 122°24'3 6.6
2017-Sep-14 21:01N 37°48' W 122°20'3 6.7
2017-Sep-14 20:31N 37°48' W 122°24'510.0
2017-Sep-14 20:00N 37°47' W 122°17'0 0.0
2017-Sep-14 19:31N 37°47' W 122°17'0 0.0
2017-Sep-14 19:00N 37°47' W 122°17'0 0.0
2017-Sep-14 18:31N 37°47' W 122°17'0 0.0
2017-Sep-14 18:00N 37°47' W 122°17'0 0.0
2017-Sep-14 17:30N 37°47' W 122°17'0 0.0
2017-Sep-14 17:00N 37°47' W 122°17'0 0.0
2017-Sep-14 16:30N 37°47' W 122°17'0 0.0
2017-Sep-14 16:01N 37°47' W 122°17'0 0.0
2017-Sep-14 15:30N 37°47' W 122°17'1 2.2
2017-Sep-14 15:00N 37°48' W 122°19'3 5.3
2017-Sep-14 14:30N 37°48' W 122°22'2 3.8
2017-Sep-14 14:01N 37°49' W 122°24'4 8.5
2017-Sep-14 13:31N 37°48' W 122°19'1 1.1
2017-Sep-14 13:01N 37°48' W 122°20'3 5.2
2017-Sep-14 12:31N 37°45' W 122°20'5 9.6
2017-Sep-14 12:00N 37°49' W 122°24'4 8.0
2017-Sep-14 11:30N 37°48' W 122°19'3 6.9
2017-Sep-14 11:00N 37°48' W 122°24'0 0.0
2017-Sep-14 10:30N 37°48' W 122°24'0 0.0
2017-Sep-14 10:00N 37°48' W 122°24'0 0.0
2017-Sep-14 09:30N 37°48' W 122°24'0 0.0
2017-Sep-14 09:00N 37°48' W 122°24'3 5.9
2017-Sep-14 08:30N 37°49' W 122°20'612.6
2017-Sep-14 08:00N 37°49' W 122°28'4 7.1
2017-Sep-14 07:30N 37°48' W 122°24'0 0.0
2017-Sep-14 07:01N 37°48' W 122°24'0 0.0
2017-Sep-14 06:30N 37°48' W 122°24'0 0.0
2017-Sep-14 06:01N 37°48' W 122°24'0 0.0
2017-Sep-14 05:30N 37°48' W 122°24'0 0.0
2017-Sep-14 05:00N 37°48' W 122°24'0 0.0
2017-Sep-14 04:31N 37°48' W 122°24'0 0.0
2017-Sep-14 04:00N 37°48' W 122°24'0 0.0
2017-Sep-14 03:31N 37°48' W 122°24'0 0.0
2017-Sep-14 03:00N 37°48' W 122°24'0 0.0
2017-Sep-14 02:30N 37°48' W 122°24'0 0.0
2017-Sep-14 02:00N 37°48' W 122°24'0 0.0
2017-Sep-14 01:31N 37°48' W 122°24'0 0.0
2017-Sep-14 01:00N 37°48' W 122°24'0 0.0
2017-Sep-14 00:31N 37°48' W 122°24'1 3.0
2017-Sep-14 00:01N 37°50' W 122°23'1 3.0
2017-Sep-13 23:30N 37°48' W 122°24'0 0.0
2017-Sep-13 23:00N 37°48' W 122°24'0 0.0
2017-Sep-13 22:30N 37°48' W 122°24'0 0.0
2017-Sep-13 22:00N 37°48' W 122°24'0 0.0
2017-Sep-13 21:30N 37°48' W 122°24'0 0.0
2017-Sep-13 21:00N 37°48' W 122°24'0 0.0
2017-Sep-13 20:30N 37°48' W 122°24'0 0.0
2017-Sep-13 20:00N 37°48' W 122°24'0 0.0
2017-Sep-13 19:30N 37°48' W 122°24'0 0.0
2017-Sep-13 19:00N 37°48' W 122°24'0 0.0
2017-Sep-13 18:30N 37°48' W 122°24'0 0.0
2017-Sep-13 18:00N 37°48' W 122°24'0 0.0
2017-Sep-13 17:30N 37°48' W 122°24'0 0.0
2017-Sep-13 17:00N 37°48' W 122°24'0 0.0
2017-Sep-13 16:30N 37°48' W 122°24'1 2.5
2017-Sep-13 16:00N 37°49' W 122°25'0 0.3
2017-Sep-13 15:30N 37°49' W 122°25'611.4
2017-Sep-13 15:00N 37°48' W 122°18'0 0.2
2017-Sep-13 14:31N 37°48' W 122°18'5 9.0
2017-Sep-13 14:00N 37°48' W 122°24'3 6.5
2017-Sep-13 13:31N 37°49' W 122°20'1 1.7
2017-Sep-13 13:01N 37°48' W 122°20'5 9.2
2017-Sep-13 12:30N 37°49' W 122°25'1 3.0
2017-Sep-13 12:00N 37°48' W 122°24'0 0.0
2017-Sep-13 11:30N 37°48' W 122°24'2 3.1
2017-Sep-13 11:00N 37°49' W 122°25'2 3.0
2017-Sep-13 10:30N 37°48' W 122°24'0 0.0
2017-Sep-13 10:00N 37°48' W 122°24'0 0.0
2017-Sep-13 09:30N 37°48' W 122°24'0 0.0
2017-Sep-13 09:00N 37°48' W 122°24'3 5.3
2017-Sep-13 08:31N 37°49' W 122°20'2 4.2
2017-Sep-13 08:01N 37°47' W 122°22'2 3.2
2017-Sep-13 07:30N 37°48' W 122°24'0 0.0
2017-Sep-13 07:00N 37°48' W 122°24'0 0.0
2017-Sep-13 06:30N 37°48' W 122°24'0 0.0
2017-Sep-13 06:00N 37°48' W 122°24'0 0.0
2017-Sep-13 05:30N 37°48' W 122°24'0 0.0
2017-Sep-13 05:00N 37°48' W 122°24'0 0.0
2017-Sep-13 04:30N 37°48' W 122°24'0 0.0
2017-Sep-13 04:00N 37°48' W 122°24'0 0.0
2017-Sep-13 03:30N 37°48' W 122°24'0 0.0
2017-Sep-13 03:00N 37°48' W 122°24'0 0.0
2017-Sep-13 02:30N 37°48' W 122°24'0 0.0
2017-Sep-13 02:00N 37°48' W 122°24'0 0.0
2017-Sep-13 01:30N 37°48' W 122°24'0 0.0
2017-Sep-13 00:59N 37°48' W 122°24'0 0.0
2017-Sep-13 00:30N 37°48' W 122°24'2 4.7
2017-Sep-13 00:00N 37°49' W 122°26'2 4.7
2017-Sep-12 23:30N 37°48' W 122°24'0 0.0
2017-Sep-12 23:00N 37°48' W 122°24'2 3.8
2017-Sep-12 22:30N 37°47' W 122°22'2 3.7
2017-Sep-12 22:00N 37°48' W 122°24'0 0.0
2017-Sep-12 21:30N 37°48' W 122°24'0 0.0
2017-Sep-12 21:00N 37°48' W 122°24'0 0.0
2017-Sep-12 20:30N 37°48' W 122°24'0 0.0
2017-Sep-12 20:00N 37°48' W 122°24'0 0.0
2017-Sep-12 19:30N 37°48' W 122°24'1 1.9
2017-Sep-12 19:01N 37°48' W 122°23'1 1.9
2017-Sep-12 18:30N 37°48' W 122°24'0 0.0
2017-Sep-12 18:01N 37°48' W 122°24'0 0.0
2017-Sep-12 17:30N 37°48' W 122°24'0 0.0
2017-Sep-12 17:01N 37°48' W 122°24'0 0.0
2017-Sep-12 16:30N 37°48' W 122°24'0 0.0
2017-Sep-12 16:01N 37°48' W 122°24'0 0.0
2017-Sep-12 15:31N 37°48' W 122°24'0 0.0
2017-Sep-12 15:00N 37°48' W 122°24'1 1.2
2017-Sep-12 14:30N 37°49' W 122°24'1 1.6
2017-Sep-12 14:01N 37°49' W 122°25'510.5
2017-Sep-12 13:30N 37°45' W 122°20'4 8.4
2017-Sep-12 13:00N 37°48' W 122°24'0 0.0
2017-Sep-12 12:30N 37°48' W 122°24'0 0.1
2017-Sep-12 12:00N 37°48' W 122°24'3 6.5
2017-Sep-12 11:31N 37°46' W 122°21'3 4.5
2017-Sep-12 10:49N 37°48' W 122°24'412.4
2017-Sep-12 10:31N 37°45' W 122°21'4 5.5
2017-Sep-12 09:50N 37°48' W 122°24'0 0.9
2017-Sep-12 09:30N 37°48' W 122°23'1 2.7
2017-Sep-12 09:00N 37°49' W 122°25'1 2.2
2017-Sep-12 08:30N 37°49' W 122°26'5 9.5
2017-Sep-12 08:00N 37°49' W 122°20'1 1.1
2017-Sep-12 07:31N 37°48' W 122°20'3 5.7
2017-Sep-12 07:00N 37°48' W 122°24'1 1.8
2017-Sep-12 06:31N 37°48' W 122°23'2 4.6
2017-Sep-12 06:01N 37°46' W 122°21'2 4.4
2017-Sep-12 05:31N 37°48' W 122°21'4 8.8
2017-Sep-12 05:00N 37°49' W 122°26'510.7
2017-Sep-12 04:30N 37°48' W 122°19'3 6.8
2017-Sep-12 04:00N 37°48' W 122°24'0 0.0
2017-Sep-12 03:30N 37°48' W 122°24'0 0.0
2017-Sep-12 03:00N 37°48' W 122°24'0 0.0
2017-Sep-12 02:30N 37°48' W 122°24'  

Dump ship's entire track history